createdAt,value
2018-12-24T00:01:15.097Z,1.00
2018-12-24T00:03:44.714Z,1.00
2018-12-24T00:06:14.311Z,0.80
2018-12-24T00:08:43.879Z,1.20
2018-12-24T00:11:13.449Z,1.10
2018-12-24T00:13:43.108Z,1.10
2018-12-24T00:16:12.759Z,0.90
2018-12-24T00:18:42.462Z,1.03
2018-12-24T00:21:12.143Z,1.10
2018-12-24T00:23:41.837Z,1.10
2018-12-24T00:26:11.453Z,1.00
2018-12-24T00:28:41.072Z,1.00
2018-12-24T00:31:10.765Z,1.10
2018-12-24T00:33:40.428Z,1.10
2018-12-24T00:36:10.041Z,0.90
2018-12-24T00:38:39.601Z,1.10
2018-12-24T00:41:09.283Z,0.90
2018-12-24T00:43:39.056Z,1.03
2018-12-24T00:46:08.735Z,1.00
2018-12-24T00:48:38.587Z,1.10
2018-12-24T00:51:08.299Z,1.20
2018-12-24T00:53:38.075Z,1.10
2018-12-24T00:56:07.781Z,1.00
2018-12-24T00:58:37.463Z,0.83
2018-12-24T01:01:07.062Z,0.73
2018-12-24T01:03:36.686Z,1.10
2018-12-24T01:06:06.489Z,0.90
2018-12-24T01:08:36.367Z,1.00
2018-12-24T01:11:06.086Z,0.90
2018-12-24T01:13:35.818Z,0.90
2018-12-24T01:16:05.548Z,1.00
2018-12-24T01:18:36.121Z,0.80
2018-12-24T01:21:05.739Z,0.90
2018-12-24T01:23:35.681Z,0.70
2018-12-24T01:26:05.267Z,1.03
2018-12-24T01:28:34.983Z,0.70
2018-12-24T01:31:04.736Z,1.07
2018-12-24T01:33:34.427Z,0.87
2018-12-24T01:36:04.079Z,1.00
2018-12-24T01:38:33.751Z,0.90
2018-12-24T01:41:03.390Z,0.90
2018-12-24T01:43:33.016Z,1.00
2018-12-24T01:46:02.638Z,0.80
2018-12-24T01:48:32.387Z,1.30
2018-12-24T01:51:45.673Z,0.90
2018-12-24T01:54:15.199Z,0.93
2018-12-24T01:56:44.528Z,0.73
2018-12-24T01:59:13.712Z,0.93
2018-12-24T02:01:42.907Z,1.00
2018-12-24T02:04:12.205Z,0.80
2018-12-24T02:06:41.487Z,1.07
2018-12-24T02:09:10.666Z,0.90
2018-12-24T02:11:39.905Z,0.90
2018-12-24T02:14:09.232Z,1.00
2018-12-24T02:16:38.415Z,0.90
2018-12-24T02:19:07.778Z,1.00
2018-12-24T02:21:37.121Z,1.00
2018-12-24T02:24:06.290Z,0.97
2018-12-24T02:26:35.549Z,0.80
2018-12-24T02:29:04.681Z,0.70
2018-12-24T02:31:33.937Z,0.80
2018-12-24T02:34:03.200Z,0.90
2018-12-24T02:36:32.452Z,0.93
2018-12-24T02:39:01.784Z,0.93
2018-12-24T02:41:31.189Z,0.90
2018-12-24T02:44:00.445Z,0.90
2018-12-24T02:46:29.628Z,0.97
2018-12-24T02:48:58.826Z,1.07
2018-12-24T02:51:28.184Z,0.93
2018-12-24T02:53:57.323Z,0.73
2018-12-24T02:56:26.549Z,0.90
2018-12-24T02:58:55.691Z,1.10
2018-12-24T03:01:24.879Z,1.00
2018-12-24T03:03:54.141Z,1.07
2018-12-24T03:06:23.402Z,0.87
2018-12-24T03:08:52.705Z,0.70
2018-12-24T03:11:21.920Z,0.80
2018-12-24T03:13:51.246Z,0.80
2018-12-24T03:16:20.555Z,0.90
2018-12-24T03:18:49.806Z,0.87
2018-12-24T03:21:19.001Z,0.80
2018-12-24T03:23:48.129Z,0.90
2018-12-24T03:26:17.382Z,0.87
2018-12-24T03:28:46.649Z,0.83
2018-12-24T03:31:15.940Z,1.00
2018-12-24T03:33:45.210Z,0.97
2018-12-24T03:36:14.507Z,1.00
2018-12-24T03:38:43.668Z,0.80
2018-12-24T03:41:12.842Z,0.90
2018-12-24T03:43:42.046Z,1.00
2018-12-24T03:46:11.262Z,0.90
2018-12-24T03:48:40.408Z,0.80
2018-12-24T03:51:09.556Z,0.83
2018-12-24T03:53:38.806Z,0.90
2018-12-24T03:56:08.005Z,0.90
2018-12-24T03:58:37.323Z,0.80
2018-12-24T04:01:06.459Z,0.70
2018-12-24T04:03:35.619Z,1.10
2018-12-24T04:06:04.810Z,0.83
2018-12-24T04:08:34.076Z,0.80
2018-12-24T04:11:03.355Z,1.03
2018-12-24T04:13:32.558Z,0.83
2018-12-24T04:16:01.789Z,0.90
2018-12-24T04:18:30.997Z,1.00
2018-12-24T04:21:00.143Z,0.90
2018-12-24T04:23:29.313Z,1.00
2018-12-24T04:25:58.582Z,0.80
2018-12-24T04:28:27.763Z,0.90
2018-12-24T04:30:56.983Z,0.50
2018-12-24T04:33:26.163Z,0.80
2018-12-24T04:35:55.383Z,0.70
2018-12-24T04:38:24.712Z,0.80
2018-12-24T04:40:53.892Z,0.83
2018-12-24T04:43:31.869Z,0.83
2018-12-24T04:45:53.944Z,0.70
2018-12-24T04:48:23.088Z,0.90
2018-12-24T04:50:52.289Z,0.80
2018-12-24T04:53:21.512Z,0.73
2018-12-24T04:55:50.700Z,0.73
2018-12-24T04:58:19.898Z,0.90
2018-12-24T05:00:49.034Z,0.93
2018-12-24T05:03:18.347Z,0.97
2018-12-24T05:05:47.506Z,1.10
2018-12-24T05:08:16.730Z,1.20
2018-12-24T05:10:45.856Z,1.10
2018-12-24T05:13:14.988Z,1.30
2018-12-24T05:15:44.138Z,1.40
2018-12-24T05:18:13.281Z,1.30
2018-12-24T05:20:42.554Z,1.30
2018-12-24T05:23:11.661Z,1.80
2018-12-24T05:25:40.766Z,1.60
2018-12-24T05:28:09.902Z,1.77
2018-12-24T05:30:39.042Z,2.17
2018-12-24T05:33:08.210Z,2.47
2018-12-24T05:35:37.357Z,2.20
2018-12-24T05:38:06.520Z,2.40
2018-12-24T05:40:35.614Z,2.43
2018-12-24T05:43:04.780Z,2.83
2018-12-24T05:45:33.937Z,2.37
2018-12-24T05:48:03.158Z,2.60
2018-12-24T05:50:32.420Z,2.57
2018-12-24T05:53:01.611Z,3.17
2018-12-24T05:55:30.817Z,3.60
2018-12-24T05:57:59.948Z,3.57
2018-12-24T06:00:29.119Z,3.70
2018-12-24T06:02:58.242Z,3.60
2018-12-24T06:05:27.403Z,4.00
2018-12-24T06:07:56.638Z,3.67
2018-12-24T06:10:25.683Z,3.57
2018-12-24T06:12:54.779Z,3.63
2018-12-24T06:15:23.874Z,4.27
2018-12-24T06:17:53.081Z,4.00
2018-12-24T06:20:22.205Z,3.93
2018-12-24T06:22:51.364Z,3.60
2018-12-24T06:25:20.515Z,4.23
2018-12-24T06:27:49.761Z,3.93
2018-12-24T06:30:18.923Z,3.50
2018-12-24T06:32:48.122Z,4.70
2018-12-24T06:35:17.346Z,4.37
2018-12-24T06:37:46.605Z,4.23
2018-12-24T06:40:15.751Z,4.03
2018-12-24T06:42:44.923Z,3.87
2018-12-24T06:45:14.137Z,4.00
2018-12-24T06:47:43.300Z,4.27
2018-12-24T06:50:12.494Z,3.80
2018-12-24T06:52:41.761Z,3.90
2018-12-24T06:55:10.848Z,4.47
2018-12-24T06:57:40.060Z,4.47
2018-12-24T07:00:09.257Z,3.90
2018-12-24T07:02:38.381Z,4.00
2018-12-24T07:05:07.567Z,4.00
2018-12-24T07:07:36.819Z,4.30
2018-12-24T07:10:06.169Z,4.20
2018-12-24T07:12:35.339Z,3.87
2018-12-24T07:15:04.561Z,5.20
2018-12-24T07:17:33.768Z,4.13
2018-12-24T07:20:02.913Z,4.20
2018-12-24T07:22:32.153Z,4.40
2018-12-24T07:25:01.286Z,4.67
2018-12-24T07:27:30.462Z,4.17
2018-12-24T07:29:59.761Z,4.23
2018-12-24T07:32:28.954Z,4.40
2018-12-24T07:34:58.135Z,4.23
2018-12-24T07:37:27.653Z,4.40
2018-12-24T07:39:56.908Z,4.90
2018-12-24T07:42:26.172Z,4.30
2018-12-24T07:44:55.360Z,4.40
2018-12-24T07:47:24.545Z,4.10
2018-12-24T07:49:53.767Z,4.33
2018-12-24T07:52:23.032Z,4.70
2018-12-24T07:54:52.250Z,4.20
2018-12-24T07:57:21.545Z,4.10
2018-12-24T07:59:50.857Z,4.60
2018-12-24T08:02:20.005Z,4.23
2018-12-24T08:04:49.273Z,4.17
2018-12-24T08:07:18.437Z,3.87
2018-12-24T08:09:47.619Z,4.20
2018-12-24T08:12:16.848Z,4.10
2018-12-24T08:14:46.089Z,4.07
2018-12-24T08:17:17.649Z,4.60
2018-12-24T08:19:50.055Z,3.57
2018-12-24T08:22:19.289Z,3.77
2018-12-24T08:24:48.475Z,4.17
2018-12-24T08:27:17.837Z,3.83
2018-12-24T08:29:47.099Z,3.83
2018-12-24T08:32:16.245Z,3.93
2018-12-24T08:34:45.446Z,3.60
2018-12-24T08:37:14.593Z,3.60
2018-12-24T08:39:43.741Z,3.90
2018-12-24T08:42:13.052Z,3.70
2018-12-24T08:44:42.362Z,3.80
2018-12-24T08:47:13.339Z,3.57
2018-12-24T08:49:42.547Z,3.63
2018-12-24T08:52:11.831Z,3.57
2018-12-24T08:54:41.077Z,3.63
2018-12-24T08:57:10.321Z,3.70
2018-12-24T08:59:39.605Z,3.43
2018-12-24T09:02:08.789Z,3.53
2018-12-24T09:04:38.051Z,3.50
2018-12-24T09:07:07.362Z,3.80
2018-12-24T09:09:36.703Z,4.17
2018-12-24T09:12:05.973Z,3.13
2018-12-24T09:14:35.124Z,3.60
2018-12-24T09:17:04.248Z,3.40
2018-12-24T09:19:33.406Z,3.50
2018-12-24T09:22:02.715Z,3.93
2018-12-24T09:24:31.854Z,3.30
2018-12-24T09:27:01.136Z,3.87
2018-12-24T09:29:30.460Z,3.90
2018-12-24T09:31:59.652Z,2.93
2018-12-24T09:34:28.888Z,3.30
2018-12-24T09:36:58.056Z,3.37
2018-12-24T09:39:27.354Z,3.10
2018-12-24T09:41:56.662Z,3.20
2018-12-24T09:44:25.857Z,3.50
2018-12-24T09:46:55.135Z,4.07
2018-12-24T09:49:24.379Z,3.00
2018-12-24T09:51:53.597Z,2.87
2018-12-24T09:54:23.004Z,2.93
2018-12-24T09:56:52.223Z,3.20
2018-12-24T09:59:21.477Z,3.20
2018-12-24T10:01:50.669Z,3.07
2018-12-24T10:04:28.532Z,2.93
2018-12-24T10:07:04.327Z,3.20
2018-12-24T10:09:33.517Z,3.47
2018-12-24T10:12:02.690Z,3.30
2018-12-24T10:14:31.833Z,2.93
2018-12-24T10:17:01.065Z,3.00
2018-12-24T10:19:30.386Z,3.13
2018-12-24T10:21:59.570Z,2.97
2018-12-24T10:24:28.807Z,2.47
2018-12-24T10:26:57.978Z,2.80
2018-12-24T10:29:27.129Z,2.97
2018-12-24T10:31:56.320Z,3.10
2018-12-24T10:34:25.518Z,2.70
2018-12-24T10:36:54.868Z,2.97
2018-12-24T10:39:25.237Z,2.63
2018-12-24T10:41:54.436Z,2.60
2018-12-24T10:44:23.654Z,2.40
2018-12-24T10:46:52.810Z,2.67
2018-12-24T10:49:21.923Z,2.90
2018-12-24T10:51:51.176Z,2.60
2018-12-24T10:54:20.372Z,3.17
2018-12-24T10:56:49.519Z,2.43
2018-12-24T10:59:18.620Z,2.73
2018-12-24T11:01:47.815Z,2.70
2018-12-24T11:04:16.963Z,2.80
2018-12-24T11:06:46.186Z,2.60
2018-12-24T11:09:15.459Z,2.37
2018-12-24T11:11:44.669Z,2.40
2018-12-24T11:14:14.032Z,2.23
2018-12-24T11:16:43.321Z,2.40
2018-12-24T11:19:12.572Z,2.60
2018-12-24T11:21:41.771Z,2.70
2018-12-24T11:24:10.957Z,2.10
2018-12-24T11:26:40.219Z,2.40
2018-12-24T11:29:09.528Z,2.40
2018-12-24T11:31:38.760Z,2.13
2018-12-24T11:34:07.915Z,2.30
2018-12-24T11:36:37.389Z,2.50
2018-12-24T11:39:07.212Z,2.10
2018-12-24T11:41:36.290Z,2.33
2018-12-24T11:44:05.498Z,2.03
2018-12-24T11:53:27.836Z,1.87
2018-12-24T11:59:25.476Z,2.10
2018-12-24T12:05:41.759Z,1.93
2018-12-24T12:17:50.295Z,2.17
2018-12-24T12:38:15.186Z,2.00
2018-12-24T12:50:49.192Z,2.17
2018-12-24T12:53:18.149Z,1.60
2018-12-24T12:55:47.000Z,2.00
2018-12-24T12:58:15.937Z,1.60
2018-12-24T13:00:44.853Z,1.80
2018-12-24T13:03:13.666Z,1.90
2018-12-24T13:05:42.621Z,1.60
2018-12-24T13:08:11.840Z,1.80
2018-12-24T13:10:40.818Z,1.60
2018-12-24T13:13:09.693Z,1.70
2018-12-24T13:15:38.550Z,1.80
2018-12-24T13:18:07.499Z,1.80
2018-12-24T13:20:36.341Z,1.70
2018-12-24T13:23:05.263Z,1.57
2018-12-24T13:25:34.109Z,1.53
2018-12-24T13:28:02.988Z,1.70
2018-12-24T13:30:31.789Z,1.67
2018-12-24T13:33:00.578Z,1.30
2018-12-24T13:35:29.316Z,1.50
2018-12-24T13:37:58.071Z,1.47
2018-12-24T13:40:26.937Z,1.60
2018-12-24T13:42:55.828Z,1.60
2018-12-24T13:45:24.619Z,1.50
2018-12-24T13:47:53.389Z,1.50
2018-12-24T13:50:22.242Z,1.40
2018-12-24T13:52:51.006Z,1.50
2018-12-24T13:55:19.893Z,1.70
2018-12-24T13:57:48.691Z,1.53
2018-12-24T14:00:17.561Z,1.67
2018-12-24T14:02:46.373Z,1.40
2018-12-24T14:05:15.204Z,1.60
2018-12-24T14:07:44.077Z,1.70
2018-12-24T14:10:13.074Z,1.60
2018-12-24T14:12:41.921Z,1.40
2018-12-24T14:15:10.731Z,1.70
2018-12-24T14:17:39.557Z,1.50
2018-12-24T14:20:08.523Z,1.50
2018-12-24T14:22:37.307Z,1.57
2018-12-24T14:25:06.263Z,1.30
2018-12-24T14:27:35.083Z,1.53
2018-12-24T14:30:04.473Z,1.47
2018-12-24T14:32:33.400Z,1.80
2018-12-24T14:35:02.277Z,1.50
2018-12-24T14:37:31.177Z,1.50
2018-12-24T14:40:00.267Z,1.30
2018-12-24T14:42:29.123Z,1.90
2018-12-24T14:44:58.043Z,1.50
2018-12-24T14:47:26.903Z,1.97
2018-12-24T14:49:55.731Z,1.50
2018-12-24T14:52:24.609Z,1.70
2018-12-24T14:54:53.481Z,1.80
2018-12-24T14:57:22.371Z,2.03
2018-12-24T14:59:51.150Z,3.17
2018-12-24T15:02:20.059Z,3.80
2018-12-24T15:04:50.062Z,3.60
2018-12-24T15:07:18.951Z,3.10
2018-12-24T15:09:47.751Z,3.50
2018-12-24T15:12:16.671Z,3.27
2018-12-24T15:14:45.561Z,3.40
2018-12-24T15:17:14.609Z,3.13
2018-12-24T15:19:43.390Z,2.87
2018-12-24T15:22:12.139Z,3.33
2018-12-24T15:24:41.166Z,4.40
2018-12-24T15:27:09.927Z,5.80
2018-12-24T15:29:38.783Z,6.93
2018-12-24T15:32:07.571Z,14.87
2018-12-24T15:34:36.353Z,21.30
2018-12-24T15:37:05.211Z,20.60
2018-12-24T15:39:33.975Z,23.70
2018-12-24T15:42:02.764Z,25.40
2018-12-24T15:44:31.533Z,26.60
2018-12-24T15:47:00.307Z,27.93
2018-12-24T15:49:29.075Z,30.33
2018-12-24T15:51:57.895Z,30.63
2018-12-24T15:54:26.645Z,30.77
2018-12-24T15:56:55.443Z,29.20
2018-12-24T15:59:24.277Z,30.73
2018-12-24T16:01:53.085Z,29.40
2018-12-24T16:04:21.837Z,27.93
2018-12-24T16:06:50.593Z,28.67
2018-12-24T16:09:19.355Z,29.03
2018-12-24T16:11:48.090Z,26.40
2018-12-24T16:14:16.859Z,26.53
2018-12-24T16:16:50.952Z,25.70
2018-12-24T16:19:16.182Z,25.70
2018-12-24T16:21:45.006Z,23.70
2018-12-24T16:24:13.771Z,24.70
2018-12-24T16:26:42.531Z,24.53
2018-12-24T16:29:11.295Z,23.30
2018-12-24T16:31:40.096Z,23.90
2018-12-24T16:34:08.864Z,22.27
2018-12-24T16:36:37.660Z,23.07
2018-12-24T16:39:07.157Z,21.50
2018-12-24T16:41:35.912Z,21.37
2018-12-24T16:44:04.685Z,20.13
2018-12-24T16:46:33.443Z,21.10
2018-12-24T16:49:02.239Z,21.37
2018-12-24T16:51:31.047Z,19.67
2018-12-24T16:53:59.800Z,18.77
2018-12-24T16:56:28.697Z,19.00
2018-12-24T16:58:57.455Z,18.50
2018-12-24T17:01:26.251Z,18.00
2018-12-24T17:03:55.111Z,17.33
2018-12-24T17:06:23.887Z,18.83
2018-12-24T17:08:52.631Z,17.27
2018-12-24T17:11:21.392Z,17.37
2018-12-24T17:13:50.173Z,16.67
2018-12-24T17:16:18.939Z,16.70
2018-12-24T17:18:47.703Z,16.30
2018-12-24T17:21:16.507Z,15.43
2018-12-24T17:23:45.275Z,16.17
2018-12-24T17:26:14.040Z,16.03
2018-12-24T17:28:42.955Z,16.27
2018-12-24T17:31:11.727Z,14.57
2018-12-24T17:33:40.485Z,14.87
2018-12-24T17:36:09.255Z,14.37
2018-12-24T17:38:38.009Z,14.27
2018-12-24T17:41:06.866Z,13.73
2018-12-24T17:43:35.639Z,13.90
2018-12-24T17:46:04.403Z,13.60
2018-12-24T17:48:33.176Z,13.70
2018-12-24T17:51:01.953Z,13.67
2018-12-24T17:53:30.757Z,12.90
2018-12-24T17:55:59.841Z,12.70
2018-12-24T17:58:28.663Z,12.03
2018-12-24T18:00:57.642Z,12.23
2018-12-24T18:03:26.474Z,12.20
2018-12-24T18:05:55.255Z,12.40
2018-12-24T18:08:24.010Z,12.50
2018-12-24T18:10:52.798Z,12.00
2018-12-24T18:13:21.544Z,12.03
2018-12-24T18:15:50.306Z,12.30
2018-12-24T18:18:19.155Z,10.63
2018-12-24T18:20:47.985Z,11.17
2018-12-24T18:23:16.742Z,11.33
2018-12-24T18:25:45.593Z,10.93
2018-12-24T18:28:14.353Z,11.03
2018-12-24T18:30:43.123Z,10.10
2018-12-24T18:33:11.867Z,9.90
2018-12-24T18:35:40.628Z,10.60
2018-12-24T18:38:09.374Z,10.13
2018-12-24T18:40:38.150Z,10.00
2018-12-24T18:43:06.891Z,10.60
2018-12-24T18:45:35.653Z,10.23
2018-12-24T18:48:04.421Z,10.40
2018-12-24T18:50:33.183Z,10.33
2018-12-24T18:53:01.967Z,10.40
2018-12-24T18:55:30.733Z,9.67
2018-12-24T18:57:59.610Z,9.43
2018-12-24T19:00:28.362Z,9.30
2018-12-24T19:02:57.130Z,10.67
2018-12-24T19:05:25.891Z,9.13
2018-12-24T19:07:54.634Z,9.03
2018-12-24T19:10:23.421Z,9.43
2018-12-24T19:12:52.225Z,9.40
2018-12-24T19:15:21.018Z,9.37
2018-12-24T19:17:49.773Z,8.70
2018-12-24T19:20:18.547Z,9.53
2018-12-24T19:22:47.305Z,9.50
2018-12-24T19:25:16.072Z,8.97
2018-12-24T19:27:44.908Z,8.63
2018-12-24T19:30:13.739Z,8.70
2018-12-24T19:32:42.503Z,8.10
2018-12-24T19:35:11.250Z,8.80
2018-12-24T19:37:40.023Z,8.23
2018-12-24T19:40:08.868Z,8.40
2018-12-24T19:42:37.623Z,8.53
2018-12-24T19:45:06.390Z,7.93
2018-12-24T19:47:35.152Z,8.30
2018-12-24T19:50:03.942Z,8.50
2018-12-24T19:52:32.700Z,8.43
2018-12-24T19:55:01.506Z,8.17
2018-12-24T19:57:30.255Z,8.53
2018-12-24T19:59:59.037Z,7.57
2018-12-24T20:02:27.793Z,8.37
2018-12-24T20:04:56.566Z,7.50
2018-12-24T20:07:25.404Z,7.83
2018-12-24T20:09:54.243Z,7.53
2018-12-24T20:12:23.029Z,7.57
2018-12-24T20:14:51.806Z,7.60
2018-12-24T20:17:20.636Z,6.97
2018-12-24T20:19:49.431Z,7.77
2018-12-24T20:22:18.351Z,7.73
2018-12-24T20:24:47.154Z,6.93
2018-12-24T20:27:15.908Z,6.60
2018-12-24T20:29:44.693Z,6.50
2018-12-24T20:32:13.453Z,6.87
2018-12-24T20:34:42.194Z,6.57
2018-12-24T20:37:11.048Z,6.30
2018-12-24T20:39:39.847Z,7.00
2018-12-24T20:42:08.702Z,6.17
2018-12-24T20:44:37.475Z,6.90
2018-12-24T20:47:06.277Z,6.30
2018-12-24T20:49:35.050Z,6.37
2018-12-24T20:52:03.905Z,7.20
2018-12-24T20:54:32.685Z,6.87
2018-12-24T20:57:01.538Z,6.17
2018-12-24T20:59:30.309Z,6.23
2018-12-24T21:01:59.153Z,6.10
2018-12-24T21:04:27.924Z,6.13
2018-12-24T21:06:56.837Z,6.33
2018-12-24T21:09:25.613Z,6.20
2018-12-24T21:11:54.461Z,5.13
2018-12-24T21:14:23.303Z,5.43
2018-12-24T21:16:52.110Z,5.43
2018-12-24T21:19:20.884Z,5.60
2018-12-24T21:21:49.742Z,5.50
2018-12-24T21:24:18.597Z,5.93
2018-12-24T21:26:47.357Z,5.23
2018-12-24T21:29:16.136Z,5.20
2018-12-24T21:31:44.874Z,5.50
2018-12-24T21:34:13.655Z,5.57
2018-12-24T21:36:42.442Z,5.27
2018-12-24T21:39:11.327Z,5.33
2018-12-24T21:41:40.179Z,5.07
2018-12-24T21:44:09.071Z,5.50
2018-12-24T21:46:37.956Z,4.97
2018-12-24T21:49:06.801Z,5.30
2018-12-24T21:51:35.672Z,5.30
2018-12-24T21:54:04.468Z,5.07
2018-12-24T21:56:33.330Z,5.00
2018-12-24T21:59:02.275Z,5.00
2018-12-24T22:01:31.367Z,4.90
2018-12-24T22:04:00.222Z,4.73
2018-12-24T22:06:29.003Z,4.40
2018-12-24T22:08:57.873Z,4.90
2018-12-24T22:11:26.689Z,4.63
2018-12-24T22:13:55.675Z,4.93
2018-12-24T22:16:24.569Z,4.70
2018-12-24T22:18:53.441Z,4.30
2018-12-24T22:21:22.475Z,4.20
2018-12-24T22:23:51.532Z,4.20
2018-12-24T22:26:20.354Z,4.67
2018-12-24T22:28:49.244Z,4.70
2018-12-24T22:31:18.136Z,4.50
2018-12-24T22:33:47.028Z,4.23
2018-12-24T22:36:16.086Z,4.17
2018-12-24T22:38:44.876Z,4.47
2018-12-24T22:41:13.756Z,4.10
2018-12-24T22:43:43.232Z,3.50
2018-12-24T22:46:12.291Z,3.70
2018-12-24T22:48:41.417Z,3.53
2018-12-24T22:51:10.246Z,3.97
2018-12-24T22:53:39.248Z,3.50
2018-12-24T22:56:08.028Z,3.80
2018-12-24T22:58:36.841Z,3.80
2018-12-24T23:01:06.065Z,3.77
2018-12-24T23:03:35.361Z,3.90
2018-12-24T23:06:04.381Z,3.77
2018-12-24T23:08:33.272Z,3.97
2018-12-24T23:11:02.074Z,3.50
2018-12-24T23:13:30.854Z,3.80
2018-12-24T23:15:59.722Z,4.20
2018-12-24T23:18:28.572Z,3.40
2018-12-24T23:20:57.464Z,3.53
2018-12-24T23:23:26.309Z,4.07
2018-12-24T23:25:55.184Z,3.37
2018-12-24T23:28:24.008Z,3.40
2018-12-24T23:30:52.858Z,3.20
2018-12-24T23:33:21.713Z,3.50
2018-12-24T23:35:50.492Z,3.67
2018-12-24T23:38:19.266Z,3.53
2018-12-24T23:40:48.145Z,3.60
2018-12-24T23:43:20.012Z,3.50
2018-12-24T23:45:48.794Z,3.53
2018-12-24T23:48:17.634Z,3.37
2018-12-24T23:50:46.534Z,3.30
2018-12-24T23:53:15.329Z,3.10
2018-12-24T23:55:44.242Z,3.50
2018-12-24T23:58:13.246Z,2.93
